Historique des stations

Retrouvez les conditions météo en temps réel en cliquant ici...

Station météo de Villebret

Altitude de la station : 353 m







Données météorologiques pour le 20/10/2020
Date
Heure
Températures Humidité Point de rosée Vitesse
du vent
Direction Rafales Windchill Pression Pluviométrie
Cumul
Date
Heure
Températures Humidité Point de rosée Vitesse
du vent
Direction Rafales Windchill Pression Pluviométrie
Cumul
20/10/2020 18:5915.0 °C74 %10.6 °C-SSE39 km/h15.0 1008 hPa-
20/10/2020 18:4415.6 °C72 %10.6 °C-S39 km/h15.6 1008 hPa-
20/10/2020 18:2916.1 °C70 %10.6 °C-SSE39 km/h16.1 1008 hPa-
20/10/2020 18:1416.3 °C68 %10.6 °C5 km/hS39 km/h16.1 1008 hPa-
20/10/2020 17:5916.4 °C68 %10.6 °C-SSO39 km/h16.7 1008 hPa-
20/10/2020 17:4416.4 °C68 %10.6 °C11 km/hS39 km/h16.1 1008 hPa-
20/10/2020 17:2916.7 °C68 %10.6 °C3 km/hS39 km/h16.7 1009 hPa-
20/10/2020 17:1416.8 °C68 %10.6 °C10 km/hSSE39 km/h16.7 1009 hPa-
20/10/2020 17:0016.7 °C69 %11.1 °C6 km/hS39 km/h16.7 1009 hPa-
20/10/2020 16:4416.5 °C71 %11.1 °C8 km/hSSE39 km/h16.7 1009 hPa-
20/10/2020 16:2916.1 °C75 %11.7 °C10 km/hS39 km/h16.1 1009 hPa-
20/10/2020 16:1416.1 °C75 %11.7 °C8 km/hSE39 km/h16.1 1009 hPa-
20/10/2020 15:5916.2 °C74 %11.7 °C6 km/hSSE39 km/h16.1 1009 hPa-
20/10/2020 15:4416.3 °C73 %11.7 °C8 km/hSE39 km/h16.1 1009 hPa-
20/10/2020 15:2916.3 °C73 %11.7 °C8 km/hSE39 km/h16.1 1009 hPa-
20/10/2020 15:1416.4 °C72 %11.1 °C3 km/hSE39 km/h16.7 1009 hPa-
20/10/2020 14:5916.6 °C72 %11.7 °C6 km/hSE39 km/h16.7 1010 hPa-
20/10/2020 14:4416.7 °C72 %11.7 °C5 km/hSE39 km/h16.7 1010 hPa-
20/10/2020 14:2916.9 °C72 %11.7 °C-SE39 km/h17.2 1010 hPa-
20/10/2020 14:1416.7 °C72 %11.7 °C-SSE39 km/h16.7 1010 hPa-
20/10/2020 13:5916.5 °C71 %11.1 °C-SE39 km/h16.7 1010 hPa-
20/10/2020 13:4416.4 °C73 %11.7 °C-O39 km/h16.7 1010 hPa-
20/10/2020 13:3015.8 °C77 %11.7 °C-O39 km/h16.1 1010 hPa-
20/10/2020 13:1415.3 °C76 %11.1 °C-SO39 km/h15.6 1011 hPa-
20/10/2020 12:5915.2 °C74 %10.6 °C-SO39 km/h15.0 1011 hPa-
20/10/2020 12:4415.0 °C74 %10.6 °C5 km/hSSO39 km/h15.0 1011 hPa-
20/10/2020 12:2914.9 °C73 %10.0 °C-SSO39 km/h15.0 1010 hPa-
20/10/2020 12:1414.8 °C74 %10.0 °C16 km/hSE39 km/h13.3 1010 hPa-
20/10/2020 11:5914.7 °C74 %10.0 °C-E39 km/h15.0 1011 hPa-
20/10/2020 11:4514.6 °C73 %10.0 °C-SSO39 km/h14.4 1011 hPa-
20/10/2020 11:2914.7 °C72 %9.4 °C3 km/hSE39 km/h15.0 1011 hPa-
20/10/2020 11:1414.6 °C71 %9.4 °C6 km/hSSE39 km/h14.4 1010 hPa-
20/10/2020 11:0014.4 °C71 %9.4 °C2 km/hSSE39 km/h14.4 1010 hPa-
20/10/2020 10:4414.3 °C70 %8.9 °C13 km/hSSO39 km/h13.3 1011 hPa-
20/10/2020 10:2914.0 °C71 %8.9 °C16 km/hSSE39 km/h11.7 1011 hPa-
20/10/2020 10:1413.7 °C72 %8.9 °C13 km/hS39 km/h12.8 1011 hPa-
20/10/2020 09:5913.4 °C72 %8.3 °C11 km/hESE39 km/h12.2 1011 hPa-
20/10/2020 09:4413.3 °C73 %8.3 °C10 km/hS39 km/h12.8 1011 hPa-
20/10/2020 09:2913.4 °C73 %8.9 °C14 km/hSE39 km/h11.7 1011 hPa-
20/10/2020 09:1413.3 °C72 %8.3 °C5 km/hSSE39 km/h13.3 1011 hPa-
20/10/2020 08:5913.3 °C72 %8.3 °C2 km/hS39 km/h13.3 1011 hPa-
20/10/2020 08:4413.0 °C72 %7.8 °C10 km/hS39 km/h11.7 1010 hPa-
20/10/2020 08:2911.7 °C76 %7.8 °C5 km/hS39 km/h11.7 1010 hPa-
20/10/2020 08:1511.4 °C77 %7.8 °C-SSE39 km/h11.7 1010 hPa-
20/10/2020 07:5911.6 °C76 %7.2 °C-SSE39 km/h11.7 1011 hPa-
20/10/2020 07:4411.7 °C74 %7.2 °C-SSE39 km/h11.7 1011 hPa-
20/10/2020 07:2911.5 °C75 %7.2 °C-S39 km/h11.7 1011 hPa-
20/10/2020 07:1411.7 °C76 %7.8 °C-SSO39 km/h11.7 1011 hPa-
20/10/2020 06:5911.9 °C74 %7.2 °C-SSO39 km/h11.7 1011 hPa-
20/10/2020 06:4412.1 °C72 %7.2 °C2 km/hS39 km/h12.2 1011 hPa-
20/10/2020 06:2912.7 °C69 %7.2 °C-SO39 km/h12.8 1011 hPa-
20/10/2020 06:1413.3 °C66 %7.2 °C-SO39 km/h13.3 1011 hPa-
20/10/2020 05:5914.1 °C62 %6.7 °C-SO39 km/h13.9 1011 hPa-
20/10/2020 05:4414.2 °C60 %6.7 °C5 km/hSO39 km/h14.4 1011 hPa-
20/10/2020 05:2914.2 °C60 %6.7 °C10 km/hOSO39 km/h13.9 1011 hPa-
20/10/2020 05:1414.6 °C59 %6.7 °C5 km/hSO39 km/h14.4 1011 hPa-
20/10/2020 04:5914.7 °C58 %6.7 °C13 km/hSO39 km/h13.9 1011 hPa-
20/10/2020 04:4414.6 °C58 %6.1 °C10 km/hS39 km/h13.9 1011 hPa-
20/10/2020 04:2914.1 °C60 %6.1 °C8 km/hSSE39 km/h13.3 1011 hPa-
20/10/2020 04:1413.8 °C61 %6.1 °C8 km/hSO39 km/h13.3 1011 hPa-
20/10/2020 03:5914.0 °C60 %6.1 °C-SO39 km/h13.9 1012 hPa-
20/10/2020 03:4514.1 °C59 %6.1 °C13 km/hS39 km/h12.8 1011 hPa-
20/10/2020 03:2914.1 °C60 %6.1 °C11 km/hSSO39 km/h12.8 1011 hPa-
20/10/2020 03:1413.9 °C60 %6.1 °C11 km/hSSE39 km/h12.8 1011 hPa-
20/10/2020 02:5913.7 °C60 %6.1 °C8 km/hS39 km/h13.3 1012 hPa-
20/10/2020 02:4413.9 °C60 %6.1 °C8 km/hSO39 km/h13.3 1012 hPa-
20/10/2020 02:2914.0 °C59 %6.1 °C10 km/hS39 km/h13.3 1012 hPa-
20/10/2020 02:1413.9 °C59 %6.1 °C8 km/hS39 km/h13.3 1011 hPa-
20/10/2020 01:5913.9 °C59 %6.1 °C11 km/hSSE39 km/h12.8 1011 hPa-
20/10/2020 01:4513.3 °C60 %5.6 °C10 km/hSSO31 km/h12.8 1011 hPa-
20/10/2020 01:2913.1 °C62 %6.1 °C8 km/hSO31 km/h12.8 1012 hPa-
20/10/2020 01:1413.0 °C63 %6.1 °C2 km/hSO31 km/h12.8 1012 hPa-
20/10/2020 00:5913.0 °C63 %6.1 °C8 km/hSSO31 km/h12.2 1012 hPa-
20/10/2020 00:4413.1 °C64 %6.1 °C6 km/hS31 km/h13.3 1012 hPa-
20/10/2020 00:2913.1 °C64 %6.1 °C10 km/hSSE31 km/h12.8 1012 hPa-
20/10/2020 00:1413.0 °C64 %6.1 °C11 km/hSSO27 km/h11.7 1012 hPa-


Minima :

Température : 11.4 °C
Humidité : 58 %
Point de rosée : 5.6 °C
Vent moyen : 2 km/h
Windchill : 11.7
Pression atm. : 1008 hPa
Maxima :

Température : 16.9 °C
Humidité : 77 %
Point de rosée : 11.7 °C
Vent moyen : 16 km/h
Windchill : 17.2
Pression atm. : 1012 hPa
Rafales max : 39 km/h
Cumul de pluie sur 24H : 0 mm

Villebret est une commune du département Allier (03).
La station météorologique du réseau de l'association la plus proche de Villebret est celle de Néris-les-Bains



Icône Facebook Association Météo Centre Icône Twitter Association Météo Centre Icône Chaîne Youtube Association Météo Centre Icône contact Association Météo Centre Icône Insta Association Météo Centre